sensor_id;sensor_type;location;lat;lon;timestamp;P1;durP1;ratioP1;P2;durP2;ratioP2
52534;SDS011;38443;53.164;5.802;2023-06-22T00:00:39;27.58;;;16.95;;
52534;SDS011;38443;53.164;5.802;2023-06-22T00:03:07;24.67;;;15.85;;
52534;SDS011;38443;53.164;5.802;2023-06-22T00:05:32;23.88;;;15.07;;
52534;SDS011;38443;53.164;5.802;2023-06-22T00:07:58;26.90;;;16.35;;
52534;SDS011;38443;53.164;5.802;2023-06-22T00:10:27;27.63;;;16.05;;
52534;SDS011;38443;53.164;5.802;2023-06-22T00:12:52;23.88;;;16.05;;
52534;SDS011;38443;53.164;5.802;2023-06-22T00:15:17;24.83;;;15.93;;
52534;SDS011;38443;53.164;5.802;2023-06-22T00:17:43;25.20;;;15.63;;
52534;SDS011;38443;53.164;5.802;2023-06-22T00:20:08;22.23;;;14.82;;
52534;SDS011;38443;53.164;5.802;2023-06-22T00:22:35;23.02;;;14.48;;
52534;SDS011;38443;53.164;5.802;2023-06-22T00:25:04;24.00;;;15.13;;
52534;SDS011;38443;53.164;5.802;2023-06-22T00:27:32;20.83;;;14.30;;
52534;SDS011;38443;53.164;5.802;2023-06-22T00:29:58;17.45;;;12.48;;
52534;SDS011;38443;53.164;5.802;2023-06-22T00:32:23;20.15;;;13.15;;
52534;SDS011;38443;53.164;5.802;2023-06-22T00:34:48;18.40;;;12.63;;
52534;SDS011;38443;53.164;5.802;2023-06-22T00:37:15;18.98;;;13.50;;
52534;SDS011;38443;53.164;5.802;2023-06-22T00:39:41;20.13;;;12.43;;
52534;SDS011;38443;53.164;5.802;2023-06-22T00:42:06;17.67;;;12.48;;
52534;SDS011;38443;53.164;5.802;2023-06-22T00:44:32;19.45;;;12.65;;
52534;SDS011;38443;53.164;5.802;2023-06-22T00:46:57;21.38;;;13.77;;
52534;SDS011;38443;53.164;5.802;2023-06-22T00:49:23;19.38;;;12.07;;
52534;SDS011;38443;53.164;5.802;2023-06-22T00:51:48;17.40;;;11.90;;
52534;SDS011;38443;53.164;5.802;2023-06-22T00:54:14;18.17;;;11.10;;
52534;SDS011;38443;53.164;5.802;2023-06-22T00:56:40;15.98;;;10.95;;
52534;SDS011;38443;53.164;5.802;2023-06-22T00:59:06;13.38;;;10.27;;
52534;SDS011;38443;53.164;5.802;2023-06-22T01:01:31;14.07;;;10.15;;
52534;SDS011;38443;53.164;5.802;2023-06-22T01:03:57;16.65;;;10.15;;
52534;SDS011;38443;53.164;5.802;2023-06-22T01:06:35;17.13;;;11.27;;
52534;SDS011;38443;53.164;5.802;2023-06-22T01:09:15;13.85;;;10.25;;
52534;SDS011;38443;53.164;5.802;2023-06-22T01:11:50;12.38;;;9.30;;
52534;SDS011;38443;53.164;5.802;2023-06-22T01:14:32;12.80;;;9.93;;
52534;SDS011;38443;53.164;5.802;2023-06-22T01:17:03;11.90;;;9.93;;
52534;SDS011;38443;53.164;5.802;2023-06-22T01:19:37;12.45;;;10.02;;
52534;SDS011;38443;53.164;5.802;2023-06-22T01:22:08;12.02;;;10.63;;
52534;SDS011;38443;53.164;5.802;2023-06-22T01:27:53;16.13;;;10.73;;
52534;SDS011;38443;53.164;5.802;2023-06-22T01:30:48;14.13;;;9.38;;
52534;SDS011;38443;53.164;5.802;2023-06-22T01:33:28;13.25;;;9.82;;
52534;SDS011;38443;53.164;5.802;2023-06-22T01:35:55;13.40;;;10.65;;
52534;SDS011;38443;53.164;5.802;2023-06-22T01:38:21;14.35;;;10.40;;
52534;SDS011;38443;53.164;5.802;2023-06-22T01:40:47;29.75;;;10.30;;
52534;SDS011;38443;53.164;5.802;2023-06-22T01:43:14;35.65;;;11.38;;
52534;SDS011;38443;53.164;5.802;2023-06-22T01:45:40;15.35;;;10.48;;
52534;SDS011;38443;53.164;5.802;2023-06-22T01:48:06;15.75;;;10.95;;
52534;SDS011;38443;53.164;5.802;2023-06-22T01:50:32;18.52;;;12.50;;
52534;SDS011;38443;53.164;5.802;2023-06-22T01:52:57;24.38;;;13.40;;
52534;SDS011;38443;53.164;5.802;2023-06-22T01:55:22;17.85;;;13.00;;
52534;SDS011;38443;53.164;5.802;2023-06-22T01:57:48;19.70;;;13.43;;
52534;SDS011;38443;53.164;5.802;2023-06-22T02:05:31;21.40;;;13.52;;
52534;SDS011;38443;53.164;5.802;2023-06-22T02:08:13;19.70;;;14.77;;
52534;SDS011;38443;53.164;5.802;2023-06-22T02:10:53;24.50;;;16.27;;
52534;SDS011;38443;53.164;5.802;2023-06-22T02:13:20;24.10;;;15.48;;
52534;SDS011;38443;53.164;5.802;2023-06-22T02:15:46;22.85;;;16.58;;
52534;SDS011;38443;53.164;5.802;2023-06-22T02:18:12;26.42;;;15.80;;
52534;SDS011;38443;53.164;5.802;2023-06-22T02:20:38;23.58;;;16.15;;
52534;SDS011;38443;53.164;5.802;2023-06-22T02:23:04;23.42;;;16.10;;
52534;SDS011;38443;53.164;5.802;2023-06-22T02:25:31;25.90;;;16.70;;
52534;SDS011;38443;53.164;5.802;2023-06-22T02:27:56;20.50;;;14.95;;
52534;SDS011;38443;53.164;5.802;2023-06-22T02:30:22;22.25;;;15.30;;
52534;SDS011;38443;53.164;5.802;2023-06-22T02:32:48;19.95;;;13.48;;
52534;SDS011;38443;53.164;5.802;2023-06-22T02:35:14;23.20;;;14.98;;
52534;SDS011;38443;53.164;5.802;2023-06-22T02:37:39;21.75;;;13.90;;
52534;SDS011;38443;53.164;5.802;2023-06-22T02:40:09;22.02;;;14.18;;
52534;SDS011;38443;53.164;5.802;2023-06-22T02:42:35;19.48;;;14.63;;
52534;SDS011;38443;53.164;5.802;2023-06-22T02:45:01;21.52;;;14.38;;
52534;SDS011;38443;53.164;5.802;2023-06-22T02:47:26;21.95;;;15.18;;
52534;SDS011;38443;53.164;5.802;2023-06-22T02:49:52;22.55;;;15.43;;
52534;SDS011;38443;53.164;5.802;2023-06-22T02:52:17;23.02;;;14.77;;
52534;SDS011;38443;53.164;5.802;2023-06-22T02:54:42;23.45;;;14.82;;
52534;SDS011;38443;53.164;5.802;2023-06-22T02:57:10;29.95;;;16.75;;
52534;SDS011;38443;53.164;5.802;2023-06-22T02:59:38;26.45;;;16.08;;
52534;SDS011;38443;53.164;5.802;2023-06-22T03:02:07;22.38;;;14.27;;
52534;SDS011;38443;53.164;5.802;2023-06-22T03:04:34;24.10;;;16.25;;
52534;SDS011;38443;53.164;5.802;2023-06-22T03:06:59;24.77;;;14.65;;
52534;SDS011;38443;53.164;5.802;2023-06-22T03:09:26;25.88;;;16.30;;
52534;SDS011;38443;53.164;5.802;2023-06-22T03:11:53;23.35;;;15.25;;
52534;SDS011;38443;53.164;5.802;2023-06-22T03:14:21;28.70;;;17.25;;
52534;SDS011;38443;53.164;5.802;2023-06-22T03:16:47;23.63;;;16.00;;
52534;SDS011;38443;53.164;5.802;2023-06-22T03:19:12;26.42;;;15.75;;
52534;SDS011;38443;53.164;5.802;2023-06-22T03:21:39;24.08;;;15.60;;
52534;SDS011;38443;53.164;5.802;2023-06-22T03:24:05;35.85;;;17.50;;
52534;SDS011;38443;53.164;5.802;2023-06-22T03:26:31;37.90;;;16.40;;
52534;SDS011;38443;53.164;5.802;2023-06-22T03:28:56;30.75;;;14.57;;
52534;SDS011;38443;53.164;5.802;2023-06-22T03:31:22;24.40;;;14.88;;
52534;SDS011;38443;53.164;5.802;2023-06-22T03:33:48;28.52;;;15.35;;
52534;SDS011;38443;53.164;5.802;2023-06-22T03:36:14;62.95;;;18.15;;
52534;SDS011;38443;53.164;5.802;2023-06-22T03:38:44;53.10;;;17.40;;
52534;SDS011;38443;53.164;5.802;2023-06-22T03:41:10;53.53;;;17.05;;
52534;SDS011;38443;53.164;5.802;2023-06-22T03:43:36;46.83;;;16.20;;
52534;SDS011;38443;53.164;5.802;2023-06-22T03:46:01;31.00;;;15.70;;
52534;SDS011;38443;53.164;5.802;2023-06-22T03:48:26;37.55;;;17.48;;
52534;SDS011;38443;53.164;5.802;2023-06-22T03:50:52;38.47;;;17.08;;
52534;SDS011;38443;53.164;5.802;2023-06-22T03:53:17;34.72;;;17.02;;
52534;SDS011;38443;53.164;5.802;2023-06-22T03:55:50;31.05;;;16.83;;
52534;SDS011;38443;53.164;5.802;2023-06-22T03:58:16;31.02;;;17.52;;
52534;SDS011;38443;53.164;5.802;2023-06-22T04:00:44;28.13;;;17.75;;
52534;SDS011;38443;53.164;5.802;2023-06-22T04:03:14;27.30;;;17.50;;
52534;SDS011;38443;53.164;5.802;2023-06-22T04:05:40;27.88;;;16.77;;
52534;SDS011;38443;53.164;5.802;2023-06-22T04:08:06;24.83;;;16.90;;
52534;SDS011;38443;53.164;5.802;2023-06-22T04:10:32;25.58;;;16.95;;
52534;SDS011;38443;53.164;5.802;2023-06-22T04:12:57;27.77;;;16.23;;
52534;SDS011;38443;53.164;5.802;2023-06-22T04:15:22;23.70;;;15.93;;
52534;SDS011;38443;53.164;5.802;2023-06-22T04:17:48;28.17;;;17.20;;
52534;SDS011;38443;53.164;5.802;2023-06-22T04:20:13;28.23;;;16.42;;
52534;SDS011;38443;53.164;5.802;2023-06-22T04:22:38;22.80;;;15.93;;
52534;SDS011;38443;53.164;5.802;2023-06-22T04:25:05;24.02;;;15.20;;
52534;SDS011;38443;53.164;5.802;2023-06-22T04:27:32;22.63;;;15.20;;
52534;SDS011;38443;53.164;5.802;2023-06-22T04:30:02;22.95;;;15.73;;
52534;SDS011;38443;53.164;5.802;2023-06-22T04:32:32;20.75;;;14.48;;
52534;SDS011;38443;53.164;5.802;2023-06-22T04:34:58;25.33;;;16.38;;
52534;SDS011;38443;53.164;5.802;2023-06-22T04:37:25;21.90;;;15.63;;
52534;SDS011;38443;53.164;5.802;2023-06-22T04:39:50;23.45;;;15.38;;
52534;SDS011;38443;53.164;5.802;2023-06-22T04:42:16;20.10;;;15.00;;
52534;SDS011;38443;53.164;5.802;2023-06-22T04:44:41;23.10;;;14.02;;
52534;SDS011;38443;53.164;5.802;2023-06-22T04:47:07;21.67;;;14.32;;
52534;SDS011;38443;53.164;5.802;2023-06-22T04:49:33;23.50;;;15.25;;
52534;SDS011;38443;53.164;5.802;2023-06-22T04:52:03;20.30;;;14.02;;
52534;SDS011;38443;53.164;5.802;2023-06-22T04:54:29;16.65;;;13.55;;
52534;SDS011;38443;53.164;5.802;2023-06-22T04:57:04;20.23;;;14.18;;
52534;SDS011;38443;53.164;5.802;2023-06-22T04:59:34;20.95;;;14.38;;
52534;SDS011;38443;53.164;5.802;2023-06-22T05:02:01;20.70;;;14.50;;
52534;SDS011;38443;53.164;5.802;2023-06-22T05:04:28;23.35;;;15.32;;
52534;SDS011;38443;53.164;5.802;2023-06-22T05:06:56;21.70;;;14.82;;
52534;SDS011;38443;53.164;5.802;2023-06-22T05:09:22;21.60;;;14.68;;
52534;SDS011;38443;53.164;5.802;2023-06-22T05:11:48;22.63;;;15.73;;
52534;SDS011;38443;53.164;5.802;2023-06-22T05:14:13;23.45;;;14.43;;
52534;SDS011;38443;53.164;5.802;2023-06-22T05:16:40;23.30;;;15.23;;
52534;SDS011;38443;53.164;5.802;2023-06-22T05:19:06;27.80;;;16.75;;
52534;SDS011;38443;53.164;5.802;2023-06-22T05:21:32;23.90;;;16.00;;
52534;SDS011;38443;53.164;5.802;2023-06-22T05:23:58;23.77;;;16.58;;
52534;SDS011;38443;53.164;5.802;2023-06-22T05:26:31;25.63;;;16.60;;
52534;SDS011;38443;53.164;5.802;2023-06-22T05:28:58;24.20;;;16.58;;
52534;SDS011;38443;53.164;5.802;2023-06-22T05:31:24;29.00;;;17.45;;
52534;SDS011;38443;53.164;5.802;2023-06-22T05:33:50;27.15;;;17.50;;
52534;SDS011;38443;53.164;5.802;2023-06-22T05:36:17;26.38;;;16.80;;
52534;SDS011;38443;53.164;5.802;2023-06-22T05:38:45;26.15;;;15.98;;
52534;SDS011;38443;53.164;5.802;2023-06-22T05:41:10;24.30;;;15.65;;
52534;SDS011;38443;53.164;5.802;2023-06-22T05:43:35;30.80;;;16.90;;
52534;SDS011;38443;53.164;5.802;2023-06-22T05:46:01;26.45;;;15.88;;
52534;SDS011;38443;53.164;5.802;2023-06-22T05:48:27;26.52;;;17.40;;
52534;SDS011;38443;53.164;5.802;2023-06-22T05:50:52;25.95;;;17.05;;
52534;SDS011;38443;53.164;5.802;2023-06-22T05:53:18;27.63;;;17.02;;
52534;SDS011;38443;53.164;5.802;2023-06-22T05:55:43;26.48;;;17.77;;
52534;SDS011;38443;53.164;5.802;2023-06-22T05:58:09;28.90;;;16.27;;
52534;SDS011;38443;53.164;5.802;2023-06-22T06:00:34;28.02;;;16.85;;
52534;SDS011;38443;53.164;5.802;2023-06-22T06:03:00;28.48;;;15.32;;
52534;SDS011;38443;53.164;5.802;2023-06-22T06:05:29;24.50;;;15.52;;
52534;SDS011;38443;53.164;5.802;2023-06-22T06:07:55;22.27;;;15.02;;
52534;SDS011;38443;53.164;5.802;2023-06-22T06:10:21;22.65;;;15.90;;
52534;SDS011;38443;53.164;5.802;2023-06-22T06:12:46;23.98;;;15.48;;
52534;SDS011;38443;53.164;5.802;2023-06-22T06:15:12;26.80;;;15.45;;
52534;SDS011;38443;53.164;5.802;2023-06-22T06:17:44;24.80;;;14.85;;
52534;SDS011;38443;53.164;5.802;2023-06-22T06:20:11;23.70;;;15.55;;
52534;SDS011;38443;53.164;5.802;2023-06-22T06:22:37;27.05;;;15.52;;
52534;SDS011;38443;53.164;5.802;2023-06-22T06:25:02;23.73;;;14.82;;
52534;SDS011;38443;53.164;5.802;2023-06-22T06:27:28;24.55;;;15.13;;
52534;SDS011;38443;53.164;5.802;2023-06-22T06:29:54;25.50;;;16.33;;
52534;SDS011;38443;53.164;5.802;2023-06-22T06:32:19;25.23;;;16.42;;
52534;SDS011;38443;53.164;5.802;2023-06-22T06:34:45;25.98;;;16.20;;
52534;SDS011;38443;53.164;5.802;2023-06-22T06:37:10;23.52;;;15.57;;
52534;SDS011;38443;53.164;5.802;2023-06-22T06:39:35;21.88;;;15.38;;
52534;SDS011;38443;53.164;5.802;2023-06-22T06:42:01;24.40;;;15.45;;
52534;SDS011;38443;53.164;5.802;2023-06-22T06:44:26;25.75;;;17.15;;
52534;SDS011;38443;53.164;5.802;2023-06-22T06:46:52;20.23;;;14.70;;
52534;SDS011;38443;53.164;5.802;2023-06-22T06:49:19;25.13;;;15.57;;
52534;SDS011;38443;53.164;5.802;2023-06-22T06:51:44;24.52;;;16.15;;
52534;SDS011;38443;53.164;5.802;2023-06-22T06:54:10;24.33;;;15.13;;
52534;SDS011;38443;53.164;5.802;2023-06-22T06:56:35;23.25;;;15.65;;
52534;SDS011;38443;53.164;5.802;2023-06-22T06:59:00;23.60;;;15.90;;
52534;SDS011;38443;53.164;5.802;2023-06-22T07:01:26;21.90;;;14.45;;
52534;SDS011;38443;53.164;5.802;2023-06-22T07:03:51;21.58;;;14.90;;
52534;SDS011;38443;53.164;5.802;2023-06-22T07:06:17;25.33;;;16.55;;
52534;SDS011;38443;53.164;5.802;2023-06-22T07:08:42;25.67;;;15.70;;
52534;SDS011;38443;53.164;5.802;2023-06-22T07:11:07;22.80;;;15.20;;
52534;SDS011;38443;53.164;5.802;2023-06-22T07:13:33;22.63;;;15.02;;
52534;SDS011;38443;53.164;5.802;2023-06-22T07:15:58;22.35;;;14.57;;
52534;SDS011;38443;53.164;5.802;2023-06-22T07:18:24;18.83;;;14.18;;
52534;SDS011;38443;53.164;5.802;2023-06-22T07:20:49;21.73;;;14.55;;
52534;SDS011;38443;53.164;5.802;2023-06-22T07:23:14;21.30;;;14.65;;
52534;SDS011;38443;53.164;5.802;2023-06-22T07:25:40;19.10;;;13.45;;
52534;SDS011;38443;53.164;5.802;2023-06-22T07:28:06;18.75;;;13.43;;
52534;SDS011;38443;53.164;5.802;2023-06-22T07:30:33;18.27;;;12.85;;
52534;SDS011;38443;53.164;5.802;2023-06-22T07:32:59;18.15;;;12.77;;
52534;SDS011;38443;53.164;5.802;2023-06-22T07:35:29;19.08;;;12.95;;
52534;SDS011;38443;53.164;5.802;2023-06-22T07:37:55;16.85;;;11.82;;
52534;SDS011;38443;53.164;5.802;2023-06-22T07:40:20;18.00;;;12.60;;
52534;SDS011;38443;53.164;5.802;2023-06-22T07:42:46;14.48;;;11.57;;
52534;SDS011;38443;53.164;5.802;2023-06-22T07:45:13;17.98;;;11.40;;
52534;SDS011;38443;53.164;5.802;2023-06-22T07:47:38;15.57;;;10.80;;
52534;SDS011;38443;53.164;5.802;2023-06-22T07:50:04;15.32;;;10.60;;
52534;SDS011;38443;53.164;5.802;2023-06-22T07:52:30;15.48;;;9.73;;
52534;SDS011;38443;53.164;5.802;2023-06-22T07:54:56;13.77;;;9.02;;
52534;SDS011;38443;53.164;5.802;2023-06-22T07:57:21;14.10;;;9.68;;
52534;SDS011;38443;53.164;5.802;2023-06-22T07:59:46;12.68;;;9.63;;
52534;SDS011;38443;53.164;5.802;2023-06-22T08:02:12;13.95;;;9.52;;
52534;SDS011;38443;53.164;5.802;2023-06-22T08:04:38;12.18;;;8.48;;
52534;SDS011;38443;53.164;5.802;2023-06-22T08:07:03;13.85;;;9.07;;
52534;SDS011;38443;53.164;5.802;2023-06-22T08:09:30;13.60;;;9.95;;
52534;SDS011;38443;53.164;5.802;2023-06-22T08:11:57;14.23;;;9.00;;
52534;SDS011;38443;53.164;5.802;2023-06-22T08:14:26;13.77;;;8.93;;
52534;SDS011;38443;53.164;5.802;2023-06-22T08:16:52;15.10;;;9.70;;
52534;SDS011;38443;53.164;5.802;2023-06-22T08:19:17;14.40;;;10.18;;
52534;SDS011;38443;53.164;5.802;2023-06-22T08:21:43;16.67;;;10.35;;
52534;SDS011;38443;53.164;5.802;2023-06-22T08:24:08;12.20;;;9.05;;
52534;SDS011;38443;53.164;5.802;2023-06-22T08:26:34;14.68;;;10.27;;
52534;SDS011;38443;53.164;5.802;2023-06-22T08:29:02;13.80;;;8.57;;
52534;SDS011;38443;53.164;5.802;2023-06-22T08:31:28;13.40;;;8.57;;
52534;SDS011;38443;53.164;5.802;2023-06-22T08:33:53;12.27;;;8.63;;
52534;SDS011;38443;53.164;5.802;2023-06-22T08:36:18;12.10;;;8.90;;
52534;SDS011;38443;53.164;5.802;2023-06-22T08:38:44;10.80;;;8.20;;
52534;SDS011;38443;53.164;5.802;2023-06-22T08:41:10;13.27;;;9.80;;
52534;SDS011;38443;53.164;5.802;2023-06-22T08:43:35;11.35;;;8.48;;
52534;SDS011;38443;53.164;5.802;2023-06-22T08:46:01;9.80;;;6.85;;
52534;SDS011;38443;53.164;5.802;2023-06-22T08:48:27;11.05;;;7.55;;
52534;SDS011;38443;53.164;5.802;2023-06-22T08:50:53;7.53;;;6.22;;
52534;SDS011;38443;53.164;5.802;2023-06-22T08:53:18;9.50;;;6.18;;
52534;SDS011;38443;53.164;5.802;2023-06-22T08:55:43;10.13;;;7.22;;
52534;SDS011;38443;53.164;5.802;2023-06-22T08:58:10;10.00;;;7.25;;
52534;SDS011;38443;53.164;5.802;2023-06-22T09:00:35;11.32;;;6.90;;
52534;SDS011;38443;53.164;5.802;2023-06-22T09:03:01;9.73;;;6.68;;
52534;SDS011;38443;53.164;5.802;2023-06-22T09:05:27;11.20;;;7.68;;
52534;SDS011;38443;53.164;5.802;2023-06-22T09:07:52;11.15;;;6.75;;
52534;SDS011;38443;53.164;5.802;2023-06-22T09:10:19;8.85;;;6.30;;
52534;SDS011;38443;53.164;5.802;2023-06-22T09:12:45;10.45;;;7.57;;
52534;SDS011;38443;53.164;5.802;2023-06-22T09:15:11;11.63;;;7.45;;
52534;SDS011;38443;53.164;5.802;2023-06-22T09:17:36;9.52;;;6.43;;
52534;SDS011;38443;53.164;5.802;2023-06-22T09:20:02;10.35;;;6.20;;
52534;SDS011;38443;53.164;5.802;2023-06-22T09:22:30;7.85;;;5.57;;
52534;SDS011;38443;53.164;5.802;2023-06-22T09:24:56;7.60;;;4.80;;
52534;SDS011;38443;53.164;5.802;2023-06-22T09:27:22;8.68;;;5.57;;
52534;SDS011;38443;53.164;5.802;2023-06-22T09:29:47;9.05;;;6.00;;
52534;SDS011;38443;53.164;5.802;2023-06-22T09:32:13;10.80;;;6.55;;
52534;SDS011;38443;53.164;5.802;2023-06-22T09:34:38;7.80;;;6.38;;
52534;SDS011;38443;53.164;5.802;2023-06-22T09:37:03;11.10;;;7.05;;
52534;SDS011;38443;53.164;5.802;2023-06-22T09:39:29;7.30;;;5.45;;
52534;SDS011;38443;53.164;5.802;2023-06-22T09:41:55;7.68;;;5.75;;
52534;SDS011;38443;53.164;5.802;2023-06-22T09:44:20;8.57;;;5.90;;
52534;SDS011;38443;53.164;5.802;2023-06-22T09:46:45;9.88;;;6.22;;
52534;SDS011;38443;53.164;5.802;2023-06-22T09:49:11;9.57;;;6.90;;
52534;SDS011;38443;53.164;5.802;2023-06-22T09:51:36;10.20;;;6.75;;
52534;SDS011;38443;53.164;5.802;2023-06-22T09:54:01;11.27;;;7.97;;
52534;SDS011;38443;53.164;5.802;2023-06-22T09:56:27;8.60;;;6.90;;
52534;SDS011;38443;53.164;5.802;2023-06-22T09:58:53;8.75;;;6.22;;
52534;SDS011;38443;53.164;5.802;2023-06-22T10:01:19;10.23;;;6.55;;
52534;SDS011;38443;53.164;5.802;2023-06-22T10:03:45;8.70;;;5.63;;
52534;SDS011;38443;53.164;5.802;2023-06-22T10:06:10;7.03;;;5.38;;
52534;SDS011;38443;53.164;5.802;2023-06-22T10:08:36;7.22;;;4.68;;
52534;SDS011;38443;53.164;5.802;2023-06-22T10:11:03;9.07;;;5.88;;
52534;SDS011;38443;53.164;5.802;2023-06-22T10:13:29;7.40;;;5.05;;
52534;SDS011;38443;53.164;5.802;2023-06-22T10:15:54;7.57;;;5.07;;
52534;SDS011;38443;53.164;5.802;2023-06-22T10:18:20;6.35;;;3.83;;
52534;SDS011;38443;53.164;5.802;2023-06-22T10:20:47;6.50;;;4.55;;
52534;SDS011;38443;53.164;5.802;2023-06-22T10:23:16;7.63;;;4.78;;
52534;SDS011;38443;53.164;5.802;2023-06-22T10:25:41;8.07;;;5.32;;
52534;SDS011;38443;53.164;5.802;2023-06-22T10:28:07;9.27;;;6.38;;
52534;SDS011;38443;53.164;5.802;2023-06-22T10:30:32;9.38;;;6.82;;
52534;SDS011;38443;53.164;5.802;2023-06-22T10:32:57;10.20;;;6.85;;
52534;SDS011;38443;53.164;5.802;2023-06-22T10:35:23;9.27;;;6.30;;
52534;SDS011;38443;53.164;5.802;2023-06-22T10:37:48;8.88;;;6.35;;
52534;SDS011;38443;53.164;5.802;2023-06-22T10:40:15;10.00;;;7.40;;
52534;SDS011;38443;53.164;5.802;2023-06-22T10:42:42;10.35;;;6.40;;
52534;SDS011;38443;53.164;5.802;2023-06-22T10:45:07;9.35;;;6.97;;
52534;SDS011;38443;53.164;5.802;2023-06-22T10:47:33;8.20;;;6.38;;
52534;SDS011;38443;53.164;5.802;2023-06-22T10:49:59;9.77;;;6.43;;
52534;SDS011;38443;53.164;5.802;2023-06-22T10:52:24;8.43;;;6.10;;
52534;SDS011;38443;53.164;5.802;2023-06-22T10:54:50;9.75;;;6.55;;
52534;SDS011;38443;53.164;5.802;2023-06-22T10:57:15;9.45;;;6.40;;
52534;SDS011;38443;53.164;5.802;2023-06-22T10:59:41;9.73;;;6.55;;
52534;SDS011;38443;53.164;5.802;2023-06-22T11:02:06;8.68;;;6.43;;
52534;SDS011;38443;53.164;5.802;2023-06-22T11:04:31;8.65;;;6.47;;
52534;SDS011;38443;53.164;5.802;2023-06-22T11:06:57;8.90;;;6.57;;
52534;SDS011;38443;53.164;5.802;2023-06-22T11:09:22;8.73;;;6.57;;
52534;SDS011;38443;53.164;5.802;2023-06-22T11:11:49;8.68;;;5.32;;
52534;SDS011;38443;53.164;5.802;2023-06-22T11:14:15;8.48;;;5.82;;
52534;SDS011;38443;53.164;5.802;2023-06-22T11:16:40;8.70;;;6.10;;
52534;SDS011;38443;53.164;5.802;2023-06-22T11:19:06;9.40;;;6.10;;
52534;SDS011;38443;53.164;5.802;2023-06-22T11:21:31;8.10;;;6.00;;
52534;SDS011;38443;53.164;5.802;2023-06-22T11:23:57;6.85;;;5.40;;
52534;SDS011;38443;53.164;5.802;2023-06-22T11:26:24;8.27;;;5.88;;
52534;SDS011;38443;53.164;5.802;2023-06-22T11:28:52;10.77;;;6.10;;
52534;SDS011;38443;53.164;5.802;2023-06-22T11:31:17;7.88;;;5.38;;
52534;SDS011;38443;53.164;5.802;2023-06-22T11:33:43;9.93;;;5.63;;
52534;SDS011;38443;53.164;5.802;2023-06-22T11:36:10;8.20;;;5.72;;
52534;SDS011;38443;53.164;5.802;2023-06-22T11:38:35;11.27;;;6.38;;
52534;SDS011;38443;53.164;5.802;2023-06-22T11:41:03;8.90;;;6.05;;
52534;SDS011;38443;53.164;5.802;2023-06-22T11:43:29;8.65;;;5.90;;
52534;SDS011;38443;53.164;5.802;2023-06-22T11:45:54;8.90;;;5.85;;
52534;SDS011;38443;53.164;5.802;2023-06-22T11:48:21;7.35;;;4.68;;
52534;SDS011;38443;53.164;5.802;2023-06-22T11:50:46;6.72;;;4.82;;
52534;SDS011;38443;53.164;5.802;2023-06-22T11:53:11;7.50;;;4.57;;
52534;SDS011;38443;53.164;5.802;2023-06-22T11:55:37;8.05;;;5.03;;
52534;SDS011;38443;53.164;5.802;2023-06-22T11:58:02;10.20;;;4.87;;
52534;SDS011;38443;53.164;5.802;2023-06-22T12:00:29;8.02;;;5.00;;
52534;SDS011;38443;53.164;5.802;2023-06-22T12:02:55;8.60;;;5.47;;
52534;SDS011;38443;53.164;5.802;2023-06-22T12:05:21;7.38;;;4.95;;
52534;SDS011;38443;53.164;5.802;2023-06-22T12:07:47;7.38;;;4.95;;
52534;SDS011;38443;53.164;5.802;2023-06-22T12:10:13;6.72;;;4.72;;
52534;SDS011;38443;53.164;5.802;2023-06-22T12:12:39;7.38;;;5.10;;
52534;SDS011;38443;53.164;5.802;2023-06-22T12:15:04;8.40;;;5.00;;
52534;SDS011;38443;53.164;5.802;2023-06-22T12:17:30;6.40;;;4.18;;
52534;SDS011;38443;53.164;5.802;2023-06-22T12:19:56;7.95;;;5.00;;
52534;SDS011;38443;53.164;5.802;2023-06-22T12:22:21;7.18;;;4.40;;
52534;SDS011;38443;53.164;5.802;2023-06-22T12:24:47;7.80;;;4.60;;
52534;SDS011;38443;53.164;5.802;2023-06-22T12:27:12;5.70;;;4.15;;
52534;SDS011;38443;53.164;5.802;2023-06-22T12:29:41;7.55;;;4.13;;
52534;SDS011;38443;53.164;5.802;2023-06-22T12:32:07;5.40;;;4.28;;
52534;SDS011;38443;53.164;5.802;2023-06-22T12:34:32;6.30;;;4.07;;
52534;SDS011;38443;53.164;5.802;2023-06-22T12:36:58;6.32;;;3.70;;
52534;SDS011;38443;53.164;5.802;2023-06-22T12:39:23;5.03;;;3.40;;
52534;SDS011;38443;53.164;5.802;2023-06-22T12:41:48;4.88;;;3.40;;
52534;SDS011;38443;53.164;5.802;2023-06-22T12:44:14;5.22;;;3.15;;
52534;SDS011;38443;53.164;5.802;2023-06-22T12:46:39;5.45;;;3.53;;
52534;SDS011;38443;53.164;5.802;2023-06-22T12:49:04;6.00;;;3.50;;
52534;SDS011;38443;53.164;5.802;2023-06-22T12:51:30;4.88;;;3.50;;
52534;SDS011;38443;53.164;5.802;2023-06-22T12:53:55;4.80;;;3.13;;
52534;SDS011;38443;53.164;5.802;2023-06-22T12:56:21;5.07;;;3.28;;
52534;SDS011;38443;53.164;5.802;2023-06-22T12:58:46;4.85;;;3.20;;
52534;SDS011;38443;53.164;5.802;2023-06-22T13:01:12;4.90;;;3.28;;
52534;SDS011;38443;53.164;5.802;2023-06-22T13:03:38;4.60;;;3.40;;
52534;SDS011;38443;53.164;5.802;2023-06-22T13:06:03;4.20;;;2.33;;
52534;SDS011;38443;53.164;5.802;2023-06-22T13:08:29;3.70;;;2.60;;
52534;SDS011;38443;53.164;5.802;2023-06-22T13:10:55;2.83;;;2.35;;
52534;SDS011;38443;53.164;5.802;2023-06-22T13:13:23;3.97;;;2.40;;
52534;SDS011;38443;53.164;5.802;2023-06-22T13:15:52;3.78;;;2.40;;
52534;SDS011;38443;53.164;5.802;2023-06-22T13:18:19;3.83;;;2.60;;
52534;SDS011;38443;53.164;5.802;2023-06-22T13:20:44;3.28;;;2.33;;
52534;SDS011;38443;53.164;5.802;2023-06-22T13:23:10;4.00;;;2.38;;
52534;SDS011;38443;53.164;5.802;2023-06-22T13:25:36;3.00;;;2.03;;
52534;SDS011;38443;53.164;5.802;2023-06-22T13:28:01;4.32;;;2.40;;
52534;SDS011;38443;53.164;5.802;2023-06-22T13:30:27;3.08;;;1.90;;
52534;SDS011;38443;53.164;5.802;2023-06-22T13:32:52;4.05;;;1.90;;
52534;SDS011;38443;53.164;5.802;2023-06-22T13:35:17;4.32;;;2.15;;
52534;SDS011;38443;53.164;5.802;2023-06-22T13:37:43;3.50;;;2.05;;
52534;SDS011;38443;53.164;5.802;2023-06-22T13:40:09;2.60;;;1.90;;
52534;SDS011;38443;53.164;5.802;2023-06-22T13:42:34;2.35;;;1.60;;
52534;SDS011;38443;53.164;5.802;2023-06-22T13:45:00;1.60;;;1.15;;
52534;SDS011;38443;53.164;5.802;2023-06-22T13:47:25;2.67;;;1.70;;
52534;SDS011;38443;53.164;5.802;2023-06-22T13:49:51;2.05;;;1.55;;
52534;SDS011;38443;53.164;5.802;2023-06-22T13:52:16;1.90;;;1.42;;
52534;SDS011;38443;53.164;5.802;2023-06-22T13:54:41;3.05;;;1.85;;
52534;SDS011;38443;53.164;5.802;2023-06-22T13:57:07;2.13;;;1.50;;
52534;SDS011;38443;53.164;5.802;2023-06-22T13:59:32;3.80;;;1.90;;
52534;SDS011;38443;53.164;5.802;2023-06-22T14:01:57;2.53;;;1.60;;
52534;SDS011;38443;53.164;5.802;2023-06-22T14:04:23;2.35;;;1.58;;
52534;SDS011;38443;53.164;5.802;2023-06-22T14:06:49;4.10;;;1.80;;
52534;SDS011;38443;53.164;5.802;2023-06-22T14:09:14;2.40;;;1.50;;
52534;SDS011;38443;53.164;5.802;2023-06-22T14:11:39;2.08;;;1.55;;
52534;SDS011;38443;53.164;5.802;2023-06-22T14:14:05;1.80;;;1.50;;
52534;SDS011;38443;53.164;5.802;2023-06-22T14:16:30;2.05;;;1.63;;
52534;SDS011;38443;53.164;5.802;2023-06-22T14:18:55;2.85;;;1.83;;
52534;SDS011;38443;53.164;5.802;2023-06-22T14:21:21;3.72;;;2.00;;
52534;SDS011;38443;53.164;5.802;2023-06-22T14:23:46;6.25;;;1.65;;
52534;SDS011;38443;53.164;5.802;2023-06-22T14:26:14;2.13;;;1.45;;
52534;SDS011;38443;53.164;5.802;2023-06-22T14:28:43;2.88;;;1.70;;
52534;SDS011;38443;53.164;5.802;2023-06-22T14:31:12;2.45;;;1.98;;
52534;SDS011;38443;53.164;5.802;2023-06-22T14:33:39;2.13;;;1.60;;
52534;SDS011;38443;53.164;5.802;2023-06-22T14:36:05;2.83;;;1.65;;